Time;durP1;ratioP1;P1;durP2;ratioP2;P2;SDS_P1;SDS_P2;PMS_P1;PMS_P2;Temp;Humidity;BMP_temperature;BMP_pressure;BME280_temperature;BME280_humidity;BME280_pressure;Samples;Min_cycle;Max_cycle;Signal;HPM_P1;HPM_P2
2022/07/02 00:02:12;;;;;;;12.95;9.70;;;;;;;11.96;100.00;155529.28;4970627;28;20492;-77
2022/07/02 00:04:52;;;;;;;19.88;10.70;;;;;;;11.99;100.00;155536.94;4978697;28;20061;-76
2022/07/02 00:07:17;;;;;;;12.77;9.90;;;;;;;11.79;100.00;155486.84;4972311;28;20090;-76
2022/07/02 00:09:43;;;;;;;10.10;8.90;;;;;;;11.87;100.00;155507.38;4971329;28;20034;-76
2022/07/02 00:12:10;;;;;;;15.82;10.02;;;;;;;11.95;100.00;155526.69;4984227;28;20034;-77
2022/07/02 00:14:37;;;;;;;12.07;9.52;;;;;;;11.83;100.00;155495.84;4999692;28;20173;-77
2022/07/02 00:17:03;;;;;;;13.85;10.07;;;;;;;11.85;100.00;155500.97;4966769;28;20043;-77
2022/07/02 00:19:30;;;;;;;11.10;9.35;;;;;;;11.73;100.00;155471.41;4968601;28;20035;-77
2022/07/02 00:21:58;;;;;;;14.23;9.35;;;;;;;11.78;100.00;155483.00;4995223;28;20058;-78
2022/07/02 00:24:24;;;;;;;15.48;9.45;;;;;;;11.65;100.00;155450.91;4966453;28;20037;-78
2022/07/02 00:26:54;;;;;;;13.85;9.60;;;;;;;11.69;100.00;155462.44;4953168;28;20382;-77
2022/07/02 00:29:33;;;;;;;14.63;9.20;;;;;;;11.70;100.00;155463.75;4993201;28;20038;-78
2022/07/02 00:31:59;;;;;;;12.25;9.82;;;;;;;11.68;100.00;155458.63;4993410;28;20141;-80
2022/07/02 00:34:25;;;;;;;12.38;8.57;;;;;;;11.58;100.00;155434.19;5001258;28;20038;-76
2022/07/02 00:36:52;;;;;;;9.77;8.65;;;;;;;11.60;100.00;155438.03;4992412;28;20500;-78
2022/07/02 00:39:17;;;;;;;16.13;9.95;;;;;;;11.57;100.00;155431.63;4973648;28;20043;-75
2022/07/02 00:41:47;;;;;;;13.68;9.20;;;;;;;11.59;100.00;155435.50;4953414;28;20042;-78
2022/07/02 00:44:14;;;;;;;15.63;9.57;;;;;;;11.44;100.00;155398.25;4962702;28;20113;-78
2022/07/02 00:46:42;;;;;;;15.52;9.40;;;;;;;11.48;100.00;155408.53;4984747;28;20034;-78
2022/07/02 00:49:09;;;;;;;16.88;8.55;;;;;;;11.53;100.00;155420.06;4977234;28;20050;-75
2022/07/02 00:51:34;;;;;;;14.25;10.15;;;;;;;11.42;100.00;155393.13;4954884;28;20041;-77
2022/07/02 00:54:02;;;;;;;18.40;9.48;;;;;;;11.47;100.00;155405.94;4969062;28;20576;-78
2022/07/02 00:56:28;;;;;;;16.30;9.77;;;;;;;11.45;100.00;155402.13;4965755;28;20043;-78
2022/07/02 00:58:54;;;;;;;13.48;9.95;;;;;;;11.45;100.00;155400.81;4965970;28;20049;-78
2022/07/02 01:01:20;;;;;;;14.98;9.88;;;;;;;11.31;100.00;155366.16;4971063;28;20035;-77
2022/07/02 01:03:48;;;;;;;15.35;10.23;;;;;;;11.35;100.00;155375.16;4967546;28;20405;-77
2022/07/02 01:06:17;;;;;;;13.20;9.77;;;;;;;11.44;100.00;155399.53;4975605;28;20022;-77
2022/07/02 01:11:30;;;;;;;12.23;10.40;;;;;;;11.46;100.00;155403.41;4954929;28;20508;-76
2022/07/02 01:13:57;;;;;;;14.95;10.73;;;;;;;11.46;100.00;155403.41;4985635;28;20041;-78
2022/07/02 01:16:23;;;;;;;14.05;10.30;;;;;;;11.41;100.00;155390.56;4984186;28;20038;-78
2022/07/02 01:18:50;;;;;;;14.73;9.90;;;;;;;11.39;100.00;155385.41;4976113;28;20038;-77
2022/07/02 01:21:16;;;;;;;12.73;9.65;;;;;;;11.35;100.00;155376.44;4990942;28;20045;-78
2022/07/02 01:23:41;;;;;;;14.95;9.73;;;;;;;11.41;100.00;155390.56;4987731;28;20039;-76
2022/07/02 01:26:07;;;;;;;12.35;9.75;;;;;;;11.38;100.00;155384.16;4966866;28;20042;-76
2022/07/02 01:28:32;;;;;;;18.92;10.27;;;;;;;11.30;100.00;155364.91;4976906;28;20066;-76
2022/07/02 01:30:58;;;;;;;15.77;9.93;;;;;;;11.19;100.00;155336.66;5001351;28;20504;-77
2022/07/02 01:33:24;;;;;;;12.43;10.23;;;;;;;11.22;100.00;155343.06;4976583;28;20085;-79
2022/07/02 01:35:49;;;;;;;11.82;10.25;;;;;;;11.24;100.00;155348.19;4975356;28;20069;-79
2022/07/02 01:38:15;;;;;;;15.32;10.32;;;;;;;11.24;100.00;155349.47;4999246;28;20026;-77
2022/07/02 01:40:41;;;;;;;13.98;9.10;;;;;;;11.24;100.00;155348.19;4976044;28;20409;-77
2022/07/02 01:43:07;;;;;;;14.85;10.30;;;;;;;11.23;100.00;155345.66;4981695;28;20046;-77
2022/07/02 01:45:33;;;;;;;13.23;9.85;;;;;;;11.22;100.00;155344.34;4949630;28;20108;-79
2022/07/02 01:47:58;;;;;;;14.23;8.93;;;;;;;11.18;100.00;155332.81;4991988;28;20129;-79
2022/07/02 01:50:24;;;;;;;12.32;9.45;;;;;;;11.25;100.00;155350.78;4970719;28;20477;-77
2022/07/02 01:52:51;;;;;;;16.70;9.85;;;;;;;11.18;100.00;155332.81;5003428;28;20074;-77
2022/07/02 01:55:17;;;;;;;13.23;9.18;;;;;;;11.17;100.00;155330.22;4957333;28;20042;-78
2022/07/02 01:57:43;;;;;;;15.10;9.88;;;;;;;11.07;100.00;155305.84;4980638;28;20113;-78
2022/07/02 02:00:11;;;;;;;15.48;10.10;;;;;;;11.05;100.00;155301.97;4972743;28;20118;-78
2022/07/02 02:02:38;;;;;;;13.48;9.93;;;;;;;10.97;100.00;155280.19;4962912;28;20041;-77
2022/07/02 02:05:04;;;;;;;16.50;10.70;;;;;;;11.00;100.00;155287.88;4988044;28;20042;-76
2022/07/02 02:07:31;;;;;;;17.77;10.70;;;;;;;10.96;100.00;155277.59;4987278;28;20031;-77
2022/07/02 02:09:56;;;;;;;13.75;10.23;;;;;;;10.92;100.00;155268.63;4972170;28;20041;-78
2022/07/02 02:12:22;;;;;;;13.23;9.70;;;;;;;11.06;100.00;155304.56;4997953;28;20030;-77
2022/07/02 02:14:48;;;;;;;14.00;10.73;;;;;;;11.06;100.00;155304.56;4984404;28;20070;-77
2022/07/02 02:17:14;;;;;;;17.55;10.85;;;;;;;11.02;100.00;155293.00;4987747;28;20030;-77
2022/07/02 02:19:40;;;;;;;16.02;10.00;;;;;;;11.01;100.00;155291.72;4987455;28;20514;-76
2022/07/02 02:22:05;;;;;;;15.32;10.07;;;;;;;10.99;100.00;155286.59;4966782;28;20031;-77
2022/07/02 02:24:31;;;;;;;14.50;10.38;;;;;;;10.94;100.00;155273.75;4966375;28;20409;-76
2022/07/02 02:26:58;;;;;;;15.93;10.20;;;;;;;10.92;100.00;155268.63;4999911;28;20030;-78
2022/07/02 02:29:24;;;;;;;13.52;10.18;;;;;;;11.06;100.00;155303.28;4972002;28;20125;-77
2022/07/02 02:31:50;;;;;;;15.52;10.13;;;;;;;10.97;100.00;155280.19;4970108;28;20588;-76
2022/07/02 02:34:16;;;;;;;13.57;9.60;;;;;;;10.96;100.00;155277.59;4949887;28;20062;-78
2022/07/02 02:36:41;;;;;;;12.57;9.45;;;;;;;10.95;100.00;155276.34;4985060;28;20042;-75
2022/07/02 02:39:07;;;;;;;13.50;9.57;;;;;;;10.95;100.00;155276.34;4984276;28;20046;-76
2022/07/02 02:41:33;;;;;;;14.02;9.57;;;;;;;10.92;100.00;155268.63;4987062;28;20506;-76
2022/07/02 02:43:58;;;;;;;14.07;9.80;;;;;;;10.90;100.00;155263.50;4986235;28;20042;-77
2022/07/02 02:46:24;;;;;;;12.77;9.80;;;;;;;10.92;100.00;155268.63;4947927;28;20039;-76
2022/07/02 02:48:50;;;;;;;10.90;9.75;;;;;;;10.87;100.00;155257.09;4972563;28;20420;-78
2022/07/02 02:51:15;;;;;;;14.48;9.48;;;;;;;10.84;100.00;155249.38;5004646;28;20038;-78
2022/07/02 02:53:42;;;;;;;13.52;9.93;;;;;;;10.81;100.00;155241.69;4962363;28;20080;-78
2022/07/02 02:56:09;;;;;;;13.05;9.57;;;;;;;10.86;100.00;155253.22;4985403;28;20484;-77
2022/07/02 02:58:35;;;;;;;13.48;9.57;;;;;;;10.88;100.00;155258.34;4961831;28;20038;-77
2022/07/02 03:01:01;;;;;;;15.02;10.10;;;;;;;10.87;100.00;155257.09;4973143;28;20038;-76
2022/07/02 03:03:27;;;;;;;10.95;9.05;;;;;;;10.83;100.00;155246.84;4985835;28;20041;-76
2022/07/02 03:05:53;;;;;;;12.15;9.05;;;;;;;10.80;100.00;155239.13;4983087;28;20048;-76
2022/07/02 03:08:19;;;;;;;16.38;8.68;;;;;;;10.88;100.00;155258.34;4986266;28;20378;-76
2022/07/02 03:10:45;;;;;;;16.08;8.73;;;;;;;10.87;100.00;155257.09;4969246;28;20513;-77
2022/07/02 03:13:11;;;;;;;13.27;9.40;;;;;;;10.76;100.00;155228.88;4970572;28;20041;-76
2022/07/02 03:15:37;;;;;;;11.18;8.35;;;;;;;10.63;100.00;155196.78;4954630;28;20031;-77
2022/07/02 03:18:03;;;;;;;12.23;9.15;;;;;;;10.67;100.00;155207.03;4982335;28;20061;-74
2022/07/02 03:20:31;;;;;;;13.30;8.43;;;;;;;10.69;100.00;155210.88;4984411;28;20031;-76
2022/07/02 03:22:56;;;;;;;12.63;9.13;;;;;;;10.65;100.00;155200.63;4978635;28;20034;-76
2022/07/02 03:25:22;;;;;;;12.38;9.00;;;;;;;10.71;100.00;155216.03;4972016;28;20050;-76
2022/07/02 03:27:48;;;;;;;10.68;8.43;;;;;;;10.75;100.00;155226.28;4973490;28;20038;-77
2022/07/02 03:30:14;;;;;;;9.95;8.77;;;;;;;10.69;100.00;155210.88;4968798;28;20145;-76
2022/07/02 03:32:39;;;;;;;14.30;8.73;;;;;;;10.71;100.00;155217.28;4990407;28;20026;-77
2022/07/02 03:35:06;;;;;;;16.73;8.43;;;;;;;10.82;100.00;155244.25;4971038;28;20061;-76
2022/07/02 03:37:31;;;;;;;11.93;8.50;;;;;;;10.74;100.00;155223.72;4982821;28;20038;-77
2022/07/02 03:39:57;;;;;;;13.35;8.82;;;;;;;10.80;100.00;155237.84;4973569;28;20049;-78
2022/07/02 03:42:23;;;;;;;14.32;8.73;;;;;;;10.84;100.00;155248.09;4986913;28;20060;-75
2022/07/02 03:44:48;;;;;;;11.48;7.63;;;;;;;10.82;100.00;155242.97;4986811;28;20069;-77
2022/07/02 03:47:14;;;;;;;14.55;8.20;;;;;;;10.82;100.00;155244.25;4971404;28;20066;-77
2022/07/02 03:49:40;;;;;;;16.20;7.93;;;;;;;10.88;100.00;155258.34;4986910;28;20041;-75
2022/07/02 03:52:05;;;;;;;11.63;7.65;;;;;;;10.96;100.00;155278.88;4953012;28;20070;-79
2022/07/02 03:54:31;;;;;;;17.88;9.20;;;;;;;11.12;100.00;155318.69;4966493;28;20046;-79
2022/07/02 03:56:57;;;;;;;11.40;8.35;;;;;;;11.20;100.00;155339.19;4999936;28;20076;-77
2022/07/02 03:59:24;;;;;;;17.70;9.48;;;;;;;11.31;100.00;155366.16;5006188;28;20069;-76
2022/07/02 04:01:52;;;;;;;12.98;9.07;;;;;;;11.36;100.00;155379.00;4974501;28;20034;-76
2022/07/02 04:04:19;;;;;;;13.88;9.30;;;;;;;11.50;100.00;155413.66;4954694;28;20041;-77
2022/07/02 04:06:44;;;;;;;12.25;9.10;;;;;;;11.67;100.00;155456.03;4964427;28;20061;-77
2022/07/02 04:09:10;;;;;;;14.75;10.05;;;;;;;11.63;100.00;155447.03;4957724;28;20034;-77
2022/07/02 04:11:35;;;;;;;11.95;9.10;;;;;;;11.67;100.00;155457.28;4990015;28;20814;-76
2022/07/02 04:14:01;;;;;;;16.33;9.63;;;;;;;11.73;100.00;155470.16;4978122;28;20069;-81
2022/07/02 04:16:27;;;;;;;11.80;8.82;;;;;;;11.77;100.00;155480.41;4999175;28;20046;-76
2022/07/02 04:18:52;;;;;;;17.02;10.07;;;;;;;11.81;100.00;155492.00;4978055;28;20034;-77
2022/07/02 04:21:18;;;;;;;12.80;10.07;;;;;;;11.83;100.00;155495.84;4975739;28;20088;-76
2022/07/02 04:23:44;;;;;;;12.68;9.52;;;;;;;11.88;100.00;155508.66;4978038;28;20049;-78
2022/07/02 04:26:09;;;;;;;14.10;9.95;;;;;;;11.99;100.00;155536.94;4972619;28;20045;-77
2022/07/02 04:28:35;;;;;;;15.75;9.70;;;;;;;12.04;100.00;155549.81;4985651;28;20042;-76
2022/07/02 04:31:00;;;;;;;16.02;9.52;;;;;;;12.07;100.00;155556.22;4961311;28;20066;-76
2022/07/02 04:33:26;;;;;;;14.10;9.02;;;;;;;12.12;100.00;155567.78;4958949;28;20097;-78
2022/07/02 04:35:52;;;;;;;14.90;9.05;;;;;;;12.25;100.00;155602.44;4971829;28;20042;-77
2022/07/02 04:38:18;;;;;;;16.88;9.60;;;;;;;12.24;100.00;155599.91;4985734;28;20145;-77
2022/07/02 04:40:43;;;;;;;11.85;8.88;;;;;;;12.40;100.00;155639.72;4963376;28;20515;-78
2022/07/02 04:43:09;;;;;;;12.07;7.85;;;;;;;12.48;100.00;155657.69;4986883;28;20082;-77
2022/07/02 04:45:34;;;;;;;13.93;8.23;;;;;;;12.46;100.00;155655.09;4967575;28;20073;-77
2022/07/02 04:48:00;;;;;;;13.63;7.88;;;;;;;12.59;100.00;155685.97;4971639;28;20528;-78
2022/07/02 04:50:26;;;;;;;11.82;8.13;;;;;;;12.65;100.00;155701.34;4991347;28;20630;-77
2022/07/02 04:52:51;;;;;;;13.15;7.82;;;;;;;12.60;100.00;155689.81;4991137;28;20037;-76
2022/07/02 04:55:17;;;;;;;13.43;7.80;;;;;;;12.76;100.00;155728.34;4960968;28;20045;-77
2022/07/02 04:57:43;;;;;;;10.98;8.18;;;;;;;12.85;100.00;155752.75;4989876;28;20386;-77
2022/07/02 05:00:08;;;;;;;10.02;6.85;;;;;;;12.99;100.00;155786.16;4971959;28;20554;-76
2022/07/02 05:02:35;;;;;;;11.65;7.40;;;;;;;13.14;100.00;155823.41;4988185;28;20030;-76
2022/07/02 05:05:01;;;;;;;11.35;6.68;;;;;;;13.19;100.00;155836.28;4995690;28;20382;-76
2022/07/02 05:07:26;;;;;;;10.88;7.20;;;;;;;13.34;100.00;155873.59;4961200;28;20051;-77
2022/07/02 05:09:52;;;;;;;9.57;6.80;;;;;;;13.50;100.00;155914.69;4974004;28;20421;-75
2022/07/02 05:12:18;;;;;;;12.40;7.10;;;;;;;13.56;100.00;155930.16;5001094;23;20046;-79
2022/07/02 05:14:43;;;;;;;7.53;6.40;;;;;;;13.69;100.00;155960.97;4961517;28;20035;-77
2022/07/02 05:17:09;;;;;;;10.93;6.53;;;;;;;13.74;100.00;155973.84;4961681;28;20092;-78
2022/07/02 05:19:35;;;;;;;10.13;6.50;;;;;;;13.88;100.00;156008.53;4963751;28;20405;-78
2022/07/02 05:22:00;;;;;;;9.95;6.05;;;;;;;13.94;100.00;156025.28;4981502;28;20070;-77
2022/07/02 05:24:26;;;;;;;11.70;6.43;;;;;;;13.98;100.00;156035.56;4975277;28;20046;-78
2022/07/02 05:26:52;;;;;;;9.50;5.57;;;;;;;14.01;100.00;156043.28;4975670;28;20045;-78
2022/07/02 05:29:18;;;;;;;9.10;5.68;;;;;;;14.16;100.00;156079.25;4976348;28;20549;-78
2022/07/02 05:31:43;;;;;;;8.05;4.38;;;;;;;14.14;100.00;156075.38;4961588;28;20485;-78
2022/07/02 05:34:09;;;;;;;6.30;4.25;;;;;;;14.29;100.00;156111.41;4986887;28;20030;-79
2022/07/02 05:36:34;;;;;;;7.63;4.93;;;;;;;14.42;100.00;156144.84;4990396;28;20026;-76
2022/07/02 05:39:00;;;;;;;9.18;4.47;;;;;;;14.46;100.00;156155.13;4975123;28;20149;-79
2022/07/02 05:41:26;;;;;;;10.48;4.05;;;;;;;14.52;100.00;156170.59;4971466;28;20022;-78
2022/07/02 05:43:51;;;;;;;8.38;4.32;;;;;;;14.66;100.00;156205.34;4973770;28;20034;-79
2022/07/02 05:46:17;;;;;;;9.15;4.30;;;;;;;14.69;100.00;156211.75;4974402;28;20049;-77
2022/07/02 05:48:43;;;;;;;7.10;4.15;;;;;;;14.89;100.00;156261.94;4971445;28;20031;-78
2022/07/02 05:51:08;;;;;;;6.50;4.10;;;;;;;15.01;100.00;156292.78;4991009;28;20038;-79
2022/07/02 05:53:34;;;;;;;8.82;4.35;;;;;;;15.17;100.00;156332.69;4990006;28;20037;-79
2022/07/02 05:56:00;;;;;;;6.78;3.78;;;;;;;15.27;100.00;156357.13;4990520;28;20030;-80
2022/07/02 05:58:25;;;;;;;7.22;3.65;;;;;;;15.43;100.00;156397.03;4974211;28;20335;-81
2022/07/02 06:00:51;;;;;;;6.72;3.90;;;;;;;15.52;100.00;156421.50;4966321;28;20054;-79
2022/07/02 06:03:16;;;;;;;6.70;3.53;;;;;;;15.55;100.00;156429.19;4986882;28;20085;-79
2022/07/02 06:08:26;;;;;;;5.63;3.20;;;;;;;15.83;100.00;156497.47;4990788;28;20026;-78
2022/07/02 06:10:55;;;;;;;9.50;3.33;;;;;;;15.88;100.00;156511.63;4973429;28;20096;-79
2022/07/02 06:13:20;;;;;;;8.32;3.30;;;;;;;15.95;100.00;156529.66;4974411;28;20034;-79
2022/07/02 06:15:46;;;;;;;7.07;3.05;;;;;;;16.14;100.00;156575.94;4977398;28;20395;-78
2022/07/02 06:18:14;;;;;;;8.80;2.47;;;;;;;16.26;100.00;156605.59;4987397;28;20045;-79
2022/07/02 06:20:40;;;;;;;5.72;2.97;;;;;;;16.38;100.00;156636.47;4983631;28;20026;-78
2022/07/02 06:23:06;;;;;;;6.95;2.75;;;;;;;16.39;100.00;156637.75;4971797;28;20053;-77
2022/07/02 06:25:33;;;;;;;5.05;2.60;;;;;;;16.64;100.00;156702.13;4990053;28;20030;-78
2022/07/02 06:27:59;;;;;;;4.97;2.10;;;;;;;16.68;100.00;156712.44;4990023;28;20026;-78
2022/07/02 06:30:25;;;;;;;7.00;2.72;;;;;;;16.72;100.00;156722.72;4989123;28;20038;-78
2022/07/02 06:32:50;;;;;;;5.68;2.17;;;;;;;16.84;100.00;156751.09;4969157;28;20038;-78
2022/07/02 06:35:16;;;;;;;6.82;2.40;;;;;;;16.96;100.00;156780.75;4989655;28;20132;-79
2022/07/02 06:37:42;;;;;;;9.70;2.22;;;;;;;16.97;98.37;156784.63;4957884;28;20041;-79
2022/07/02 06:40:08;;;;;;;5.70;2.20;;;;;;;17.03;100.00;156798.81;4989450;28;20030;-77
2022/07/02 06:42:34;;;;;;;6.05;2.05;;;;;;;17.15;100.00;156829.69;4989906;28;20033;-80
2022/07/02 06:45:00;;;;;;;5.75;1.60;;;;;;;17.22;100.00;156847.72;4972165;28;20036;-77
2022/07/02 06:47:27;;;;;;;5.90;2.13;;;;;;;17.35;100.00;156878.63;4984884;28;20041;-76
2022/07/02 06:49:55;;;;;;;5.95;1.58;;;;;;;17.47;100.00;156909.56;4985488;28;20088;-77
2022/07/02 06:52:21;;;;;;;5.10;1.75;;;;;;;17.58;97.20;156937.91;4970825;28;20121;-77
2022/07/02 06:54:47;;;;;;;3.03;1.38;;;;;;;17.71;98.22;156970.13;4982671;28;20038;-76
2022/07/02 06:57:12;;;;;;;5.47;1.75;;;;;;;17.65;94.83;156954.63;4989249;28;20034;-78
2022/07/02 06:59:38;;;;;;;4.50;1.63;;;;;;;17.81;96.30;156995.88;4989619;28;20370;-77
2022/07/02 07:02:04;;;;;;;2.58;1.30;;;;;;;17.94;96.66;157026.88;4964044;28;20110;-77
2022/07/02 07:04:31;;;;;;;4.70;1.65;;;;;;;17.96;92.73;157033.28;4984933;28;20104;-79
2022/07/02 07:07:04;;;;;;;4.28;1.20;;;;;;;18.17;91.10;157086.13;4954967;28;20046;-77
2022/07/02 07:09:30;;;;;;;;;;;;;;;18.31;92.17;157120.94;4992055;28;20034;-79
2022/07/02 07:11:56;;;;;;;3.20;1.33;;;;;;;18.36;92.78;157132.53;4972638;28;19936;-78
2022/07/02 07:14:22;;;;;;;3.55;1.40;;;;;;;18.58;90.60;157187.97;4983185;28;20098;-78
2022/07/02 07:16:48;;;;;;;4.45;1.30;;;;;;;18.68;88.98;157213.72;4969241;28;20563;-78
2022/07/02 07:19:14;;;;;;;5.57;1.02;;;;;;;18.80;88.97;157244.75;4984865;28;20042;-78
2022/07/02 07:21:41;;;;;;;8.85;1.23;;;;;;;18.92;87.58;157274.38;4980827;28;20048;-80
2022/07/02 07:24:08;;;;;;;6.13;1.00;;;;;;;18.99;87.57;157291.16;4970902;28;20046;-78
2022/07/02 07:26:35;;;;;;;4.90;1.02;;;;;;;19.06;86.10;157310.50;4972512;28;20069;-78
2022/07/02 07:29:01;;;;;;;4.57;0.95;;;;;;;19.22;86.43;157349.19;4988278;28;20611;-77
2022/07/02 07:31:28;;;;;;;3.70;0.98;;;;;;;19.32;87.35;157373.66;4985365;28;20120;-75
2022/07/02 07:33:55;;;;;;;3.78;1.00;;;;;;;19.47;87.85;157412.34;4984949;28;20061;-76
2022/07/02 07:36:23;;;;;;;4.47;0.90;;;;;;;19.47;83.57;157411.06;4987565;28;20101;-77
2022/07/02 07:38:50;;;;;;;2.95;0.90;;;;;;;19.53;81.72;157426.53;4994849;28;20045;-77
2022/07/02 07:41:18;;;;;;;4.70;1.00;;;;;;;19.68;76.82;157463.94;4971577;28;20054;-79
2022/07/02 07:43:43;;;;;;;7.18;0.80;;;;;;;19.70;80.37;157469.09;4959375;28;20408;-79
2022/07/02 07:46:09;;;;;;;4.40;1.13;;;;;;;19.69;77.70;157467.81;4978380;28;20113;-80
2022/07/02 07:48:35;;;;;;;3.00;0.90;;;;;;;19.72;79.00;157474.25;4977882;28;20034;-77
2022/07/02 07:51:01;;;;;;;3.78;0.98;;;;;;;19.88;78.32;157515.59;4962994;28;20058;-80
2022/07/02 07:53:26;;;;;;;7.55;1.05;;;;;;;20.12;79.96;157574.97;4975870;28;20098;-80
2022/07/02 07:55:53;;;;;;;7.35;1.63;;;;;;;20.08;76.52;157564.59;4975352;28;20549;-78
2022/07/02 07:58:19;;;;;;;4.03;0.98;;;;;;;20.17;76.75;157587.81;4955822;28;20072;-77
2022/07/02 08:00:46;;;;;;;6.20;0.80;;;;;;;20.13;75.70;157577.50;4964771;28;20138;-77
2022/07/02 08:03:14;;;;;;;3.15;0.90;;;;;;;20.20;74.50;157595.59;4963620;28;20447;-77
2022/07/02 08:05:41;;;;;;;3.97;0.93;;;;;;;20.08;71.57;157564.59;4969165;28;20099;-78
2022/07/02 08:08:09;;;;;;;4.85;0.73;;;;;;;20.33;75.08;157629.13;4987027;28;20022;-79
2022/07/02 08:10:35;;;;;;;4.50;1.00;;;;;;;20.54;76.46;157680.75;4970268;28;20018;-80
2022/07/02 08:13:01;;;;;;;5.88;1.23;;;;;;;20.67;73.10;157713.06;4953988;28;20395;-78
2022/07/02 08:15:27;;;;;;;6.65;0.88;;;;;;;20.84;74.68;157755.66;4947942;28;20080;-78
2022/07/02 08:17:53;;;;;;;3.13;0.88;;;;;;;20.89;72.26;157769.84;4990146;28;20477;-78
2022/07/02 08:20:20;;;;;;;4.60;0.90;;;;;;;20.99;71.91;157795.66;4971525;28;20652;-79
2022/07/02 08:22:46;;;;;;;3.25;0.80;;;;;;;21.06;72.89;157812.44;4988665;28;20787;-78
2022/07/02 08:25:15;;;;;;;4.53;0.75;;;;;;;21.17;69.66;157840.84;4982340;28;20160;-80
2022/07/02 08:27:42;;;;;;;3.25;0.85;;;;;;;21.34;68.79;157882.13;4957313;28;20400;-79
2022/07/02 08:30:08;;;;;;;3.50;0.85;;;;;;;21.15;66.87;157835.69;4940713;28;20147;-80
2022/07/02 08:32:34;;;;;;;4.28;0.80;;;;;;;21.28;71.49;157866.66;4986416;28;20026;-80
2022/07/02 08:35:00;;;;;;;3.90;0.80;;;;;;;21.37;68.81;157889.88;4954938;28;20037;-79
2022/07/02 08:37:26;;;;;;;3.22;0.75;;;;;;;21.37;67.57;157891.16;4981237;28;20073;-79
2022/07/02 08:39:52;;;;;;;7.65;0.90;;;;;;;21.48;67.64;157918.34;4984912;28;20500;-79
2022/07/02 08:42:26;;;;;;;8.13;1.35;;;;;;;21.67;68.67;157964.84;4983228;28;20137;-78
2022/07/02 08:45:02;;;;;;;8.77;0.80;;;;;;;21.80;65.03;157998.41;4968709;28;20249;-81
2022/07/02 08:47:27;;;;;;;4.47;0.80;;;;;;;21.76;64.43;157989.34;4976681;28;20337;-79
2022/07/02 08:49:54;;;;;;;4.57;0.98;;;;;;;21.87;65.24;158016.50;4969610;28;20038;-78
2022/07/02 08:52:21;;;;;;;3.15;0.80;;;;;;;21.89;63.72;158020.38;4964850;28;20093;-79
2022/07/02 08:54:48;;;;;;;3.95;0.60;;;;;;;21.88;62.36;158017.75;4970325;28;20045;-79
2022/07/02 08:57:14;;;;;;;4.25;0.80;;;;;;;21.91;61.13;158025.53;4971224;28;20072;-79
2022/07/02 08:59:40;;;;;;;3.75;0.50;;;;;;;21.99;61.91;158046.19;4984688;28;20763;-78
2022/07/02 09:02:06;;;;;;;3.58;0.73;;;;;;;22.06;65.53;158064.25;4963678;28;20069;-79
2022/07/02 09:04:34;;;;;;;3.35;0.85;;;;;;;22.00;61.49;158047.44;4953706;28;20066;-79
2022/07/02 09:07:02;;;;;;;1.67;0.70;;;;;;;21.95;60.45;158037.13;4970851;28;20515;-77
2022/07/02 09:09:30;;;;;;;3.75;1.00;;;;;;;21.90;61.81;158022.94;4957327;28;20033;-77
2022/07/02 09:11:57;;;;;;;2.72;0.63;;;;;;;21.96;60.70;158039.75;4982082;28;20061;-78
2022/07/02 09:14:23;;;;;;;2.65;0.70;;;;;;;22.23;64.70;158105.59;4960432;28;20137;-77
2022/07/02 09:16:49;;;;;;;3.42;0.65;;;;;;;22.42;60.84;158153.44;4962932;28;20070;-76
2022/07/02 09:19:16;;;;;;;7.93;0.70;;;;;;;22.60;64.71;158198.63;4988444;28;20026;-78
2022/07/02 09:21:49;;;;;;;2.28;0.68;;;;;;;22.87;62.36;158268.41;4978141;28;20416;-78
2022/07/02 09:24:25;;;;;;;4.13;0.60;;;;;;;22.81;56.32;158252.91;4990404;28;20038;-77
2022/07/02 09:27:02;;;;;;;4.75;0.70;;;;;;;22.92;57.50;158281.34;4975624;28;20042;-77
2022/07/02 09:29:28;;;;;;;7.05;0.70;;;;;;;23.09;58.26;158324.03;4972756;28;20038;-79
2022/07/02 09:31:54;;;;;;;1.67;0.40;;;;;;;23.02;54.81;158304.56;4956292;28;20037;-77
2022/07/02 09:34:27;;;;;;;3.15;0.70;;;;;;;23.17;56.21;158342.06;4952878;28;20038;-78
2022/07/02 09:36:53;;;;;;;1.75;0.50;;;;;;;22.97;54.09;158292.94;4985457;28;20038;-77
2022/07/02 09:39:30;;;;;;;5.35;0.60;;;;;;;23.06;53.33;158314.97;4975882;28;20117;-78
2022/07/02 09:41:57;;;;;;;2.78;0.57;;;;;;;23.26;55.57;158365.34;4975843;28;20030;-77
2022/07/02 09:44:23;;;;;;;4.25;0.55;;;;;;;23.56;55.54;158441.59;4990027;28;20038;-78
2022/07/02 09:46:48;;;;;;;1.40;0.60;;;;;;;23.27;53.51;158369.22;4972461;28;20866;-78
2022/07/02 09:49:15;;;;;;;1.25;0.40;;;;;;;23.29;55.08;158374.41;4976187;28;20125;-78
2022/07/02 09:51:52;;;;;;;3.30;0.45;;;;;;;23.66;55.40;158466.19;4991166;28;20038;-79
2022/07/02 09:54:23;;;;;;;1.98;0.50;;;;;;;23.89;51.80;158525.66;4973919;28;20030;-77
2022/07/02 09:56:56;;;;;;;1.23;0.50;;;;;;;23.85;52.52;158514.06;4990985;28;20034;-78
2022/07/02 09:59:23;;;;;;;3.78;0.70;;;;;;;23.51;52.29;158428.69;4969133;28;20072;-79
2022/07/02 10:01:49;;;;;;;2.10;0.70;;;;;;;23.72;50.90;158481.69;4970864;28;20088;-77
2022/07/02 10:04:15;;;;;;;0.88;0.40;;;;;;;24.05;51.23;158565.78;4990287;28;20042;-79
2022/07/02 10:06:45;;;;;;;1.20;0.57;;;;;;;24.03;51.68;158559.28;4957870;28;20065;-80
2022/07/02 10:09:13;;;;;;;4.43;0.60;;;;;;;24.26;51.79;158618.78;4990046;28;20066;-79
2022/07/02 10:11:40;;;;;;;4.05;0.80;;;;;;;24.58;51.45;158697.66;4975589;28;20097;-80
2022/07/02 10:14:08;;;;;;;1.75;0.73;;;;;;;24.46;47.42;158669.16;4969108;28;20081;-79
2022/07/02 10:16:34;;;;;;;2.42;0.55;;;;;;;24.04;53.27;158561.88;4962279;28;20743;-78
2022/07/02 10:19:02;;;;;;;1.63;0.40;;;;;;;23.63;52.25;158459.69;4974016;28;20378;-78
2022/07/02 10:21:29;;;;;;;1.27;0.60;;;;;;;23.46;54.18;158417.03;5001789;28;20053;-79
2022/07/02 10:23:56;;;;;;;5.50;0.60;;;;;;;23.89;52.08;158525.66;4995827;28;20046;-79
2022/07/02 10:26:22;;;;;;;6.65;0.60;;;;;;;24.35;51.94;158640.72;4990771;28;20042;-81
2022/07/02 10:28:49;;;;;;;3.05;0.80;;;;;;;24.04;53.31;158563.16;4974695;28;20034;-79
2022/07/02 10:31:19;;;;;;;6.30;0.60;;;;;;;23.56;50.97;158441.59;4990584;28;20026;-79
2022/07/02 10:33:57;;;;;;;1.52;0.52;;;;;;;23.31;52.58;158379.56;4975089;28;20045;-79
2022/07/02 10:36:23;;;;;;;3.60;0.65;;;;;;;22.75;55.91;158237.38;5002629;28;20030;-80
2022/07/02 10:38:58;;;;;;;1.63;0.50;;;;;;;22.14;59.50;158083.63;4991488;28;20027;-83
2022/07/02 10:41:28;;;;;;;2.35;0.50;;;;;;;21.86;67.12;158012.59;4982822;28;20057;-83
2022/07/02 10:43:56;;;;;;;2.83;0.68;;;;;;;21.84;60.68;158007.44;5014392;28;20230;-85
2022/07/02 10:46:24;;;;;;;2.63;0.63;;;;;;;21.56;58.77;157937.69;4998946;28;20378;-80
2022/07/02 10:48:56;;;;;;;1.90;0.60;;;;;;;21.91;58.23;158025.53;4983455;28;20061;-82
2022/07/02 10:51:25;;;;;;;2.83;0.45;;;;;;;22.88;53.88;158269.69;5008360;28;20054;-81
2022/07/02 10:53:56;;;;;;;2.65;0.68;;;;;;;23.62;51.47;158455.81;5015768;28;20192;-79
2022/07/02 10:56:21;;;;;;;1.90;0.70;;;;;;;23.59;50.50;158449.38;5015389;28;20124;-80
2022/07/02 10:58:47;;;;;;;2.72;0.73;;;;;;;23.47;50.59;158418.31;4975344;28;20038;-80
2022/07/02 11:01:18;;;;;;;2.50;0.60;;;;;;;23.48;50.57;158422.22;4974870;28;20458;-80
2022/07/02 11:03:51;;;;;;;1.45;0.60;;;;;;;23.22;52.55;158356.28;4959771;28;20069;-80
2022/07/02 11:06:22;;;;;;;6.28;0.73;;;;;;;22.94;51.17;158286.50;4988945;28;20050;-82
2022/07/02 11:08:57;;;;;;;1.00;0.50;;;;;;;22.62;55.34;158205.13;4953159;28;20563;-80
2022/07/02 11:11:32;;;;;;;1.85;0.60;;;;;;;22.37;62.51;158141.78;4990379;28;20662;-80
2022/07/02 11:13:58;;;;;;;4.93;0.68;;;;;;;22.13;66.93;158082.34;4991652;23;20054;-75
2022/07/02 11:16:23;;;;;;;6.85;0.57;;;;;;;22.06;62.13;158064.25;4966040;28;20046;-77
2022/07/02 11:18:50;;;;;;;2.67;0.63;;;;;;;22.13;65.05;158082.34;4990509;28;20065;-77
2022/07/02 11:21:19;;;;;;;1.77;0.50;;;;;;;22.08;64.13;158068.16;4968977;28;20038;-78